Aérodrome :
LOGIN :

S'inscrire | Disclaimer

   EN    FR    IT 

 










Légende :    VFR   VFR Marginal   IFR   IFR Intensif   IFR Très Intensif
Visi : 
Plafond : 
>= 8 km
>= 3000ft
5 à 8 km
1000 à 3000 ft
1500m à 5 km
500 à 1000 ft
800 à 1500m
200 à 500 ft
< 800m
< 200 ft
Symboles :   Orages  Brouillard  Fortes neiges  Fortes précipitations  Vent > 20 kt
SIGMETs :   Divers  Orages  Givrage  Turbulence  Onde Orograph.  Cendres Volcan.






- Altitude de l'aérodrome : 1300 ft
- Code IATA : LIG


LFBL - Limoges

DERNIER METAR :
  • 211700Z AUTO 19019KT 6000 RA FEW012/// BKN017/// BKN025/// ///CB 08/07 Q0999 TEMPO 4000 RA BKN008 FEW025TCU BECMG 20020G30KT

METARs EXPIRÉS :
  • 211630Z AUTO 19019KT 9999 BKN015/// BKN039/// BKN047/// ///TCU 08/07 Q0999 TEMPO 4000 RA BKN008 FEW025TCU BECMG 20020G30KT
  • 211600Z AUTO 18019KT 9999 BKN012/// OVC056/// ///TCU 08/07 Q0999 TEMPO 4000 RA BKN008 FEW025TCU BECMG 20020G30KT
  • 211530Z AUTO 18018KT 9999 OVC012 08/07 Q1000 TEMPO 4000 RA BKN008 FEW025TCU BECMG 20020G30KT
  • 211500Z AUTO 20017KT 9999 -RA OVC011/// ///TCU 08/07 Q1000 TEMPO 4000 RA BKN008 FEW025TCU BECMG 20020G30KT
  • 211430Z AUTO 21016KT 9999 -RA BKN014/// OVC020/// ///CB 09/07 Q1001 TEMPO 4000 RA BKN008 FEW025TCU BECMG 20020G30KT

TAF TAF LFBL
Valide du 21 à 12h jusqu'au 22 à 12h UTC


211100Z 2112/2212 20014KT 9999 OVC008
BECMG 2112/2114 20020G30KT BKN012 OVC050
TEMPO 2112/2120 4000 RA BKN008 FEW025TCU
BECMG 2200/2202 20014KT
TEMPO 2206/2212 4000 RA BKN007 FEW020TCU
ATIS : +33 5 55 48 40 37



MET'MAP, la Météo Aéronautique d'un coup d'oeil ! - Copyright ORBIFLY Décembre 2007 - Disclaimer

ORBIFLY MET'MAP TEAM :

Programmation & Développement : Alexandra Zaïnal
Sur une idée originale de : Baudouin d'Aumeries
Assistance à la programmation : Marc-Olivier Méhu
Soutien technique & logistique : Manuel Goepfert

Contact : metmap@orbifly.com




SOURCES & CREDITS :

   NOAA